디시인사이드 갤러리

마이너 갤러리 이슈박스, 최근방문 갤러리

갤러리 리스트 영역

갤러리 리스트
번호 말머리 제목 글쓴이 작성일 조회 추천
1593 이슈 [디시人터뷰] BJ 마이민 '시청자 분들은 항상 고마워요' 운영자 21/01/25 - -
1598 설문 현질에 외제차 한대 정도는 썼을 것 같은 게임 마니아 스타는? 운영자 21/01/27 - -
2 공지 스피드런이란? [2] 이햇반갤로그로 이동합니다. 17.06.05 3017 13
1 공지 스피드런 마이너 갤러리에 오신 것을 환영합니다 이햇반갤로그로 이동합니다. 17.06.05 425 0
1416 정보 스피드런 자선 마라톤 행사 SSM, 4월 중순 개최 예정 [1] 임바다갤로그로 이동합니다. 01.27 128 3
1415 일반 내가 등재 신청한 게임에서 몇시간전에 다른사람거는 등재됐는데 [5] ㅇㅇ(116.122) 01.26 55 0
1414 정보 마인크래프트 스피드런 가이드 (Any% 1.7RSG) [1] hru갤로그로 이동합니다. 01.23 39 3
1413 일반 너네들은 승인받는거 며칠걸렸냐? [2] ㅇㅇ(116.122) 01.23 39 0
1412 일반 스피드런에서 영문판 기준으로 하는 이유 [2] ㅇㅇ(116.122) 01.21 51 1
1411 일반 콘솔 스피드런은 수동으로 타이머를 조작해야 되는 거임? [4] ㅇㅇ(180.64) 01.18 49 0
1410 일반 인내심 길러주는 스피드런게임 추천한다 ㅇㅇ(116.122) 01.12 44 0
1409 일반 smb 연습롬 질문 ㅇㅇ(211.184) 01.11 34 0
1407 일반 smb 스피드런 카테고리 중에 AISSON이 뭐임? [3] ㅇㅇ(211.184) 01.06 51 0
1406 일반 마리오 또 신기록 등장 [2] ㅋㅋㅋㅋㅋ(121.164) 01.04 80 0
1404 일반 같은게임 하는사람들끼리 디코만들거나 합류하는게 좋음 [2] ㅇㅇ(175.223) 01.01 79 0
1403 일반 배틀런 디코는 볼때마다 뭔가 그래 [1] ㅇㅇ갤로그로 이동합니다. 01.01 91 0
1402 일반 디코있나요 [4] ㅇㅇ(180.66) 20.12.31 84 0
1401 일반 점프킹 고바베 스피드런 6:19.882 월드레코드 ㅇㅇ(222.106) 20.12.24 37 1
1400 일반 스피드런에 대해 지금 안거 [1] ㅇㅇ(116.122) 20.12.08 103 1
1398 일반 리듬세상처럼 스피드런 하기 쉬운겜 없냐 [2] ㅇㅇ(116.122) 20.11.30 80 0
1397 일반 라이브 스플릿 처음 쓰는데 질문점 [1] ㅇㅇ(218.155) 20.11.30 52 0
1396 일반 혹시 포켓몬스터 블화2 스피드런 하는 사람 있냐? [2] ㅇㅇ(116.122) 20.11.29 60 0
1395 일반 마리오 신기록 등장 [5] ㅋㅋ(106.102) 20.11.14 133 0
1394 일반 BPM Odr 하드 난이도 14:29.370 [3] 서루a갤로그로 이동합니다. 20.11.09 104 6
1393 일반 갱신될 듯 하면서 안되는 날 진짜 빡친다 [1] ㅇㅇ(125.131) 20.11.01 93 0
1392 일반 celeste classic에 %human key랑 %key 있던데 [1] ㅇㅇ(223.39) 20.10.30 54 0
1391 일반 스피드런은 이과적 마인드가 필요하다 ㅇㅇ(110.70) 20.10.28 69 0
1390 영상 점프킹 고바베 스피드런 6:27.719 [7] ㅇㅇ(125.131) 20.10.19 173 7
1389 기록 화이트데이 스팀판 전 부문 1위 달성 ㅇㅁㄴ(61.79) 20.10.01 83 2
1388 일반 라이브스플릿 처음 써보는대 [3] ㅇㅇ(211.229) 20.09.30 84 0
1386 일반 스피드런닷컴에 보류중인 작업 취소할 수 있음? [1] ㅇㅇ(182.216) 20.09.22 67 0
1385 일반 any% Low% 그런건 알겠는데 [1] ㅇㅇ(175.213) 20.09.20 97 0
1384 일반 스피드런에서 젤 중요한 세가지 [3] ㅇㅇ(175.223) 20.09.10 149 1
1383 기록 39:30 화이트데이 왕리얼 소영 진엔딩 세계 기록 갱신 ㅇㅁㄴ(61.79) 20.08.28 42 2
1382 일반 GDQ 한국 리스트림 관련글 [2] 농부(58.230) 20.08.15 239 2
1379 일반 스피드런 뉴비인데 이런 문구 뜨면서 등록이 안되 어뜨케 해야되? [3] 익명(211.107) 20.07.30 307 1
1377 일반 랜덤시드인데 나왔던 시드가 또 나오면 어떡함? [5] ㅇㅇ(106.101) 20.07.24 146 0
1376 일반 이번 gdq ㅇㅇ(14.36) 20.07.22 120 1
1375 일반 오... ㅇㅇ갤로그로 이동합니다. 20.07.13 94 1
1374 일반 스피드런으로 인기 있는 fps게임 시리즈 머있어? [1] ㅇㅇ(116.124) 20.07.08 113 0
1373 기록 바이오하자드 1 어레인지 모드 16개 전 부문 1위 달성 ㅇㅁㄴ(61.79) 20.07.07 66 4
1372 일반 Ninja Gaiden 1 pacifist 16:50 (닌자용검전1불살) asdfspeedrun갤로그로 이동합니다. 20.07.07 45 0
1371 일반 스피드런 갤러리도 있었네 ㅇㅇ(14.37) 20.07.06 51 0
1370 일반 라오어2 굿엔딩 스피드런 ㅋㅋㅋㅋ [4] 이햇반갤로그로 이동합니다. 20.07.05 148 2
1369 일반 리듬세상wii 스런 흐응좌갤로그로 이동합니다. 20.06.29 76 3
1368 일반 방송하는건 진짜 부담많이 되네 [4] ㅇㅇ(175.223) 20.06.19 188 0
1367 일반 ㅅㅂ 님덜 GONNER 흥겜임 2 나옴 주토피아갤로그로 이동합니다. 20.06.14 88 1
1366 일반 Ninja Gaiden 1 pacifist 19:18 (닌자용검전1불살) asdfspeedrun갤로그로 이동합니다. 20.06.12 66 1
1363 일반 셀레스트 애니퍼센트 32:22.250 ㅇㅇ갤로그로 이동합니다. 20.05.30 125 8
갤러리 내부 검색
제목+내용게시물 정렬 옵션

오른쪽 컨텐츠 영역

이슈줌NEW

1/6

힛(HIT)NEW

그때 그 힛

1/3